EAU weather

Chippewa Valley Regional Airport
Eau Claire, Wisconsin, United States

Public forecast

Using degrees Fahrenheit for public forecast. Weather courtesy of forecast.io.

METAR (pilot weather report)

Retrieved 2019/05/23 13:30 UTC (0 seconds ago):

KEAU 231330Z 27015G27KT 10SM SCT024 OVC038 13/07 A2990 RMK AO2 PK WND 26027/1330 T01280072

TAF (pilot weather forecast)

Retrieved 2019/05/23 12:22 UTC (1 hour ago):

TAF KEAU 231120Z 2312/2412 23007KT P6SM SCT015 BKN040 FM231500 27013G22KT P6SM SCT025 BKN040 FM240000 30009KT P6SM SCT045 FM240900 10005KT P6SM SCT030 OVC090